Time;durP1;ratioP1;P1;durP2;ratioP2;P2;SDS_P1;SDS_P2;PMS_P1;PMS_P2;Temp;Humidity;BMP_temperature;BMP_pressure;BME280_temperature;BME280_humidity;BME280_pressure;Samples;Min_cycle;Max_cycle;Signal;HPM_P1;HPM_P2
2022/04/03 00:00:54;;;;;;;11.70;6.43;;;;;;;5.04;48.18;101686.94;5066541;28;20048;-61
2022/04/03 00:03:21;;;;;;;16.55;6.03;;;;;;;5.03;47.89;101690.75;5062980;28;20056;-60
2022/04/03 00:05:49;;;;;;;12.45;6.15;;;;;;;4.87;49.02;101697.09;5071713;28;20399;-61
2022/04/03 00:08:16;;;;;;;10.30;6.13;;;;;;;4.89;48.84;101694.94;5068514;28;20053;-63
2022/04/03 00:10:45;;;;;;;11.20;6.40;;;;;;;4.75;49.10;101698.28;5070754;28;20041;-60
2022/04/03 00:13:13;;;;;;;11.50;6.20;;;;;;;4.64;49.46;101696.50;5069391;28;20053;-61
2022/04/03 00:15:42;;;;;;;11.40;6.45;;;;;;;4.51;50.12;101695.78;5068327;28;20053;-61
2022/04/03 00:18:10;;;;;;;11.18;6.03;;;;;;;4.72;50.08;101698.78;5074108;28;20055;-60
2022/04/03 00:20:38;;;;;;;10.52;5.85;;;;;;;4.83;49.48;101709.59;5070389;28;20040;-63
2022/04/03 00:23:06;;;;;;;12.10;6.70;;;;;;;4.86;48.99;101706.38;5063821;28;20072;-61
2022/04/03 00:25:34;;;;;;;15.50;6.40;;;;;;;4.73;49.89;101703.16;5071815;28;20059;-62
2022/04/03 00:28:02;;;;;;;13.45;6.43;;;;;;;4.67;49.44;101706.91;5068935;28;20528;-60
2022/04/03 00:30:30;;;;;;;10.48;6.43;;;;;;;4.63;49.98;101705.72;5052110;28;20048;-60
2022/04/03 00:32:57;;;;;;;9.55;6.03;;;;;;;4.40;50.15;101715.75;5067258;28;20064;-61
2022/04/03 00:35:25;;;;;;;10.27;5.88;;;;;;;4.47;50.36;101708.25;5070848;28;20052;-62
2022/04/03 00:37:52;;;;;;;11.32;5.82;;;;;;;4.43;50.33;101700.78;5070835;28;20048;-62
2022/04/03 00:40:23;;;;;;;11.10;5.80;;;;;;;4.46;50.18;101705.75;5068307;28;20047;-62
2022/04/03 00:42:51;;;;;;;10.85;6.20;;;;;;;4.24;51.18;101702.94;5071760;28;20056;-61
2022/04/03 00:45:19;;;;;;;9.73;5.82;;;;;;;4.13;51.36;101703.84;5070272;28;20071;-62
2022/04/03 00:47:53;;;;;;;8.90;5.63;;;;;;;4.06;51.55;101716.00;5074100;28;20491;-62
2022/04/03 00:50:21;;;;;;;10.90;5.97;;;;;;;4.10;52.10;101715.25;5070999;28;20048;-62
2022/04/03 00:52:49;;;;;;;11.27;5.97;;;;;;;4.18;51.95;101714.88;5046579;28;20041;-62
2022/04/03 00:55:16;;;;;;;9.70;6.18;;;;;;;4.08;52.03;101720.13;5074563;28;20067;-61
2022/04/03 00:57:44;;;;;;;12.70;6.38;;;;;;;4.23;51.98;101709.50;5074858;28;20060;-61
2022/04/03 01:00:15;;;;;;;9.95;6.15;;;;;;;4.39;51.50;101705.91;5074566;28;20412;-61
2022/04/03 01:02:43;;;;;;;10.95;6.13;;;;;;;4.38;51.61;101712.44;5069763;28;20525;-64
2022/04/03 01:05:13;;;;;;;9.73;5.85;;;;;;;4.26;52.03;101711.72;5066260;28;20506;-64
2022/04/03 01:07:45;;;;;;;11.15;6.13;;;;;;;4.27;51.90;101699.72;5069333;28;20064;-60
2022/04/03 01:10:13;;;;;;;11.00;5.68;;;;;;;4.59;51.58;101703.50;5075015;28;20055;-60
2022/04/03 01:12:41;;;;;;;9.15;5.60;;;;;;;4.41;51.83;101701.03;5074597;28;20059;-62
2022/04/03 01:15:19;;;;;;;13.07;6.00;;;;;;;4.40;51.53;101698.56;5073850;28;20206;-64
2022/04/03 01:17:47;;;;;;;13.05;5.85;;;;;;;4.41;51.81;101698.31;5069456;28;20037;-56
2022/04/03 01:20:14;;;;;;;12.52;5.93;;;;;;;4.15;52.51;101704.44;5074453;28;20056;-60
2022/04/03 01:22:42;;;;;;;11.45;6.28;;;;;;;4.24;52.23;101700.22;5074392;28;20059;-58
2022/04/03 01:25:10;;;;;;;15.93;6.63;;;;;;;4.49;51.63;101699.81;5073778;28;20060;-54
2022/04/03 01:27:39;;;;;;;11.02;5.82;;;;;;;4.18;52.29;101697.66;5072373;28;20036;-56
2022/04/03 01:30:07;;;;;;;12.55;6.78;;;;;;;4.46;52.47;101692.94;5067574;28;20049;-56
2022/04/03 01:32:35;;;;;;;10.93;6.00;;;;;;;4.75;51.85;101690.91;5071535;28;20060;-63
2022/04/03 01:35:03;;;;;;;13.27;6.18;;;;;;;4.53;51.51;101700.97;5076788;28;20059;-61
2022/04/03 01:37:31;;;;;;;14.55;5.95;;;;;;;4.40;52.30;101698.56;5074549;28;20052;-63
2022/04/03 01:39:58;;;;;;;13.70;6.30;;;;;;;4.26;52.81;101699.97;5072599;28;20048;-61
2022/04/03 01:42:26;;;;;;;10.75;6.53;;;;;;;4.09;53.32;101699.16;5066951;28;20496;-60
2022/04/03 01:44:53;;;;;;;14.35;7.15;;;;;;;4.10;53.41;101695.34;5074914;28;20045;-57
2022/04/03 01:47:21;;;;;;;10.07;6.03;;;;;;;4.44;53.10;101692.38;5071711;28;20056;-58
2022/04/03 01:49:48;;;;;;;11.30;6.57;;;;;;;4.36;52.46;101694.66;5074403;28;20048;-54
2022/04/03 01:52:15;;;;;;;11.25;6.50;;;;;;;4.24;53.52;101702.94;5070556;28;20052;-56
2022/04/03 01:54:43;;;;;;;14.45;6.35;;;;;;;4.19;53.94;101697.41;5075280;28;20060;-57
2022/04/03 01:57:10;;;;;;;17.38;6.82;;;;;;;4.39;53.75;101700.47;5073295;28;20546;-58
2022/04/03 01:59:38;;;;;;;12.52;6.28;;;;;;;4.20;53.85;101707.25;5075474;28;20049;-54
2022/04/03 02:02:05;;;;;;;11.35;6.72;;;;;;;4.22;54.12;101698.84;5071143;28;20071;-58
2022/04/03 02:04:33;;;;;;;14.80;6.90;;;;;;;4.33;53.84;101697.91;5068184;28;20053;-58
2022/04/03 02:07:03;;;;;;;11.38;6.18;;;;;;;4.22;54.09;101710.53;5070786;28;20048;-52
2022/04/03 02:09:31;;;;;;;10.95;6.22;;;;;;;4.11;54.50;101703.28;5070939;28;20613;-54
2022/04/03 02:11:58;;;;;;;12.05;6.43;;;;;;;4.24;54.40;101699.38;5074629;28;20052;-51
2022/04/03 02:14:25;;;;;;;11.95;6.72;;;;;;;4.38;54.11;101700.72;5073714;28;20060;-55
2022/04/03 02:16:57;;;;;;;9.55;5.97;;;;;;;4.10;54.64;101698.91;5063329;28;20051;-60
2022/04/03 02:19:25;;;;;;;11.60;5.85;;;;;;;4.18;54.77;101692.22;5071624;28;20056;-58
2022/04/03 02:21:52;;;;;;;10.23;6.05;;;;;;;4.35;54.15;101687.59;5073437;28;20044;-54
2022/04/03 02:24:20;;;;;;;10.82;6.32;;;;;;;4.43;54.21;101693.44;5068458;28;20052;-56
2022/04/03 02:26:47;;;;;;;12.45;6.22;;;;;;;4.40;54.13;101693.94;5066079;28;20416;-57
2022/04/03 02:29:15;;;;;;;14.00;6.10;;;;;;;4.24;53.90;101708.41;5071942;28;20057;-57
2022/04/03 02:31:42;;;;;;;12.52;6.32;;;;;;;4.18;54.31;101705.84;5067710;28;20423;-52
2022/04/03 02:34:10;;;;;;;14.95;6.07;;;;;;;4.42;54.38;101699.97;5072662;28;20452;-58
2022/04/03 02:36:40;;;;;;;10.50;5.60;;;;;;;4.43;53.82;101698.06;5070290;28;20051;-57
2022/04/03 02:39:07;;;;;;;9.50;5.53;;;;;;;4.31;54.22;101698.16;5067801;28;20053;-58
2022/04/03 02:41:35;;;;;;;8.93;5.50;;;;;;;4.33;53.88;101706.91;5073764;28;20056;-52
2022/04/03 02:44:03;;;;;;;16.00;6.50;;;;;;;4.52;53.62;101702.03;5065432;28;20044;-57
2022/04/03 02:46:31;;;;;;;10.48;5.78;;;;;;;4.30;54.33;101703.88;5068598;28;20056;-55
2022/04/03 02:48:58;;;;;;;9.00;5.30;;;;;;;4.14;54.82;101696.50;5070706;28;20050;-52
2022/04/03 02:51:26;;;;;;;10.80;5.38;;;;;;;4.14;54.78;101707.41;5069426;28;20057;-56
2022/04/03 02:53:53;;;;;;;8.85;5.65;;;;;;;4.22;54.65;101701.56;5069411;28;20047;-55
2022/04/03 02:56:20;;;;;;;9.20;5.35;;;;;;;4.10;55.24;101711.69;5067523;28;20507;-55
2022/04/03 02:58:48;;;;;;;13.90;6.18;;;;;;;4.06;55.36;101699.66;5065799;28;20048;-57
2022/04/03 03:01:15;;;;;;;10.32;5.43;;;;;;;4.08;55.05;101695.59;5065747;28;20053;-54
2022/04/03 03:03:43;;;;;;;13.80;6.00;;;;;;;4.16;54.80;101703.38;5059854;28;20401;-59
2022/04/03 03:06:11;;;;;;;12.57;5.93;;;;;;;4.23;54.72;101704.03;5057295;28;20045;-56
2022/04/03 03:08:38;;;;;;;9.00;5.65;;;;;;;4.23;54.71;101703.19;5071579;28;20056;-57
2022/04/03 03:11:05;;;;;;;13.75;6.10;;;;;;;4.02;54.87;101704.75;5074399;28;20435;-62
2022/04/03 03:13:33;;;;;;;11.13;5.88;;;;;;;3.98;55.68;101711.78;5068264;28;20508;-61
2022/04/03 03:16:01;;;;;;;11.90;6.28;;;;;;;4.00;55.75;101712.34;5066624;28;20064;-60
2022/04/03 03:18:28;;;;;;;13.00;6.05;;;;;;;4.07;55.82;101712.19;5063197;28;20044;-65
2022/04/03 03:20:56;;;;;;;13.85;6.40;;;;;;;3.89;56.40;101715.16;5070270;28;20045;-61
2022/04/03 03:23:24;;;;;;;13.30;6.53;;;;;;;4.07;56.12;101725.81;5082559;28;20049;-61
2022/04/03 03:25:51;;;;;;;16.67;7.25;;;;;;;3.95;56.44;101717.72;5071200;28;20404;-62
2022/04/03 03:28:19;;;;;;;11.38;6.53;;;;;;;3.89;56.35;101721.41;5073259;28;20053;-62
2022/04/03 03:30:46;;;;;;;14.73;6.35;;;;;;;4.04;56.32;101727.16;5070577;28;20048;-61
2022/04/03 03:33:14;;;;;;;12.88;6.32;;;;;;;4.24;55.85;101724.75;5066470;28;20063;-62
2022/04/03 03:35:41;;;;;;;11.00;6.18;;;;;;;4.43;55.18;101726.16;5071014;28;20056;-61
2022/04/03 03:38:10;;;;;;;13.25;5.78;;;;;;;4.26;55.25;101722.63;5074635;28;20048;-65
2022/04/03 03:40:39;;;;;;;16.10;6.28;;;;;;;4.11;56.16;101729.72;5074658;28;20055;-61
2022/04/03 03:43:09;;;;;;;11.52;5.50;;;;;;;4.14;55.48;101723.75;5068811;28;20059;-60
2022/04/03 03:45:37;;;;;;;10.13;5.47;;;;;;;4.17;55.36;101718.66;5084346;28;20060;-62
2022/04/03 03:48:04;;;;;;;10.10;5.25;;;;;;;4.18;55.54;101735.84;5067249;28;20520;-63
2022/04/03 03:50:32;;;;;;;14.77;5.90;;;;;;;4.27;55.36;101728.91;5071777;28;20041;-61
2022/04/03 03:52:59;;;;;;;9.18;5.38;;;;;;;3.81;56.48;101730.00;5067108;28;20045;-59
2022/04/03 03:55:26;;;;;;;9.85;5.70;;;;;;;3.86;56.60;101723.81;5071109;28;20496;-60
2022/04/03 03:57:54;;;;;;;14.75;5.95;;;;;;;3.96;56.48;101734.88;5074516;28;20040;-63
2022/04/03 04:00:21;;;;;;;11.23;5.60;;;;;;;4.09;56.08;101721.78;5071118;28;20063;-62
2022/04/03 04:02:48;;;;;;;12.13;5.43;;;;;;;3.97;56.42;101737.38;5068167;28;20037;-61
2022/04/03 04:05:16;;;;;;;13.75;5.72;;;;;;;3.68;57.00;101719.38;5088500;28;20044;-61
2022/04/03 04:07:44;;;;;;;13.38;5.43;;;;;;;3.74;56.87;101723.03;5074403;28;20049;-62
2022/04/03 04:10:13;;;;;;;10.98;5.55;;;;;;;3.75;56.95;101730.97;5053721;28;20052;-61
2022/04/03 04:12:41;;;;;;;9.98;5.65;;;;;;;3.85;56.48;101720.28;5066714;28;20041;-62
2022/04/03 04:15:09;;;;;;;12.88;5.93;;;;;;;3.71;57.05;101727.09;5074753;28;20051;-59
2022/04/03 04:17:39;;;;;;;12.98;5.30;;;;;;;3.85;56.82;101735.78;5073171;28;20614;-60
2022/04/03 04:20:12;;;;;;;9.18;5.15;;;;;;;3.80;56.52;101738.41;5069365;28;20048;-59
2022/04/03 04:22:40;;;;;;;12.70;5.82;;;;;;;3.77;56.83;101741.59;5076414;28;20506;-61
2022/04/03 04:25:08;;;;;;;12.68;5.60;;;;;;;3.85;56.63;101738.50;5075979;28;20048;-61
2022/04/03 04:27:36;;;;;;;13.15;5.75;;;;;;;3.77;56.83;101745.16;5075069;28;20059;-62
2022/04/03 04:30:04;;;;;;;12.15;6.07;;;;;;;3.76;56.94;101750.88;5072305;28;20053;-61
2022/04/03 04:32:32;;;;;;;14.57;6.03;;;;;;;3.41;57.72;101751.00;5068352;28;20041;-60
2022/04/03 04:34:59;;;;;;;11.85;5.70;;;;;;;3.49;58.04;101758.78;5075648;28;20055;-60
2022/04/03 04:37:26;;;;;;;10.90;5.82;;;;;;;3.74;57.34;101750.28;5077752;28;20293;-61
2022/04/03 04:39:54;;;;;;;11.57;5.97;;;;;;;3.63;57.14;101756.63;5092410;28;20349;-61
2022/04/03 04:42:21;;;;;;;15.90;6.28;;;;;;;3.59;57.12;101755.44;5070327;28;20405;-60
2022/04/03 04:44:49;;;;;;;11.45;6.05;;;;;;;3.72;57.17;101752.41;5073852;28;20052;-60
2022/04/03 04:47:16;;;;;;;12.02;6.07;;;;;;;3.77;57.09;101764.25;5074469;28;20415;-62
2022/04/03 04:49:44;;;;;;;11.57;5.78;;;;;;;3.88;56.50;101765.25;5042735;28;20053;-61
2022/04/03 04:52:11;;;;;;;12.52;5.57;;;;;;;3.34;56.99;101766.63;5074595;28;20057;-61
2022/04/03 04:54:38;;;;;;;11.38;6.13;;;;;;;3.22;57.95;101757.66;5055184;28;20052;-61
2022/04/03 04:57:07;;;;;;;11.88;5.88;;;;;;;3.63;57.54;101771.03;5072982;28;20048;-61
2022/04/03 04:59:34;;;;;;;14.23;5.65;;;;;;;3.41;57.89;101759.16;5076547;28;20056;-62
2022/04/03 05:02:08;;;;;;;10.82;5.55;;;;;;;3.26;58.52;101772.47;5075063;28;20052;-63
2022/04/03 05:04:36;;;;;;;11.13;5.32;;;;;;;3.22;58.47;101766.66;5074917;28;20507;-60
2022/04/03 05:07:04;;;;;;;11.27;5.88;;;;;;;3.19;58.66;101771.75;5067258;28;20048;-61
2022/04/03 05:09:32;;;;;;;12.50;5.13;;;;;;;3.12;58.72;101771.88;5063356;28;20055;-60
2022/04/03 05:11:59;;;;;;;15.10;6.10;;;;;;;2.95;59.56;101781.00;5069447;28;20041;-62
2022/04/03 05:14:27;;;;;;;10.50;5.35;;;;;;;3.10;58.91;101767.75;5079663;28;20056;-62
2022/04/03 05:16:54;;;;;;;14.60;4.78;;;;;;;3.41;58.40;101772.78;5069712;28;20328;-60
2022/04/03 05:19:24;;;;;;;10.20;4.97;;;;;;;3.17;58.78;101779.34;5075801;28;20070;-60
2022/04/03 05:21:53;;;;;;;;;;;;;;;3.25;58.60;101781.69;5071395;28;20056;-59
2022/04/03 05:24:20;;;;;;;11.93;5.70;;;;;;;3.24;58.21;101783.56;5074992;28;20379;-62
2022/04/03 05:26:48;;;;;;;17.17;5.43;;;;;;;2.91;59.78;101785.28;5073610;28;20048;-62
2022/04/03 05:29:15;;;;;;;14.95;6.03;;;;;;;2.78;59.89;101796.38;5075804;28;20056;-61
2022/04/03 05:31:43;;;;;;;11.63;5.32;;;;;;;2.90;59.29;101791.75;5064116;28;20048;-61
2022/04/03 05:34:10;;;;;;;10.23;5.55;;;;;;;2.98;59.31;101794.94;5074877;28;20059;-60
2022/04/03 05:36:38;;;;;;;12.82;5.38;;;;;;;3.18;58.61;101806.31;5089118;28;20052;-60
2022/04/03 05:39:08;;;;;;;12.38;5.88;;;;;;;2.85;59.02;101794.38;5076918;28;20064;-60
2022/04/03 05:41:36;;;;;;;13.00;5.80;;;;;;;2.74;59.45;101808.78;5065248;28;20056;-60
2022/04/03 05:44:03;;;;;;;10.93;5.43;;;;;;;2.68;59.50;101798.84;5073478;28;20056;-61
2022/04/03 05:46:30;;;;;;;11.88;6.05;;;;;;;2.76;59.40;101812.94;5069849;28;20052;-60
2022/04/03 05:48:59;;;;;;;12.45;5.72;;;;;;;2.47;59.76;101804.84;5069667;28;20071;-59
2022/04/03 05:51:27;;;;;;;9.70;5.27;;;;;;;2.51;60.20;101804.16;5069559;28;20071;-59
2022/04/03 05:53:54;;;;;;;11.60;6.15;;;;;;;2.72;59.82;101806.31;5073523;28;20044;-61
2022/04/03 05:56:27;;;;;;;12.55;5.55;;;;;;;2.66;59.52;101807.25;5075671;28;20053;-57
2022/04/03 05:58:54;;;;;;;13.45;5.93;;;;;;;2.73;59.30;101810.69;5072952;28;20068;-56
2022/04/03 06:01:22;;;;;;;13.95;6.60;;;;;;;2.47;59.78;101808.41;5073436;28;20059;-55
2022/04/03 06:03:50;;;;;;;13.07;5.65;;;;;;;2.88;58.90;101812.94;5061275;28;20067;-57
2022/04/03 06:06:17;;;;;;;14.20;5.85;;;;;;;2.85;57.83;101811.53;5087752;28;20064;-57
2022/04/03 06:08:57;;;;;;;10.02;5.43;;;;;;;2.89;58.36;101814.59;5066367;28;20432;-56
2022/04/03 06:11:26;;;;;;;15.52;5.97;;;;;;;2.79;57.35;101817.09;5066321;28;20420;-57
2022/04/03 06:13:53;;;;;;;12.23;5.88;;;;;;;2.53;58.62;101818.34;5081379;28;20052;-61
2022/04/03 06:16:20;;;;;;;15.05;6.03;;;;;;;2.84;57.80;101819.94;5070641;28;20412;-53
2022/04/03 06:26:32;;;;;;;14.60;5.93;;;;;;;2.93;57.41;101829.41;5023538;28;20057;-57
2022/04/03 06:29:00;;;;;;;12.00;6.13;;;;;;;2.90;56.77;101835.28;5021610;28;20054;-57
2022/04/03 06:31:28;;;;;;;13.32;6.32;;;;;;;2.68;57.27;101847.81;5031704;28;20072;-55
2022/04/03 06:33:56;;;;;;;9.95;5.63;;;;;;;2.43;57.76;101839.84;5019346;28;20058;-54
2022/04/03 06:36:23;;;;;;;15.00;6.18;;;;;;;2.61;57.58;101830.78;5020732;28;20053;-56
2022/04/03 06:38:50;;;;;;;11.38;5.63;;;;;;;2.49;57.80;101844.34;5021715;28;20065;-56
2022/04/03 06:41:18;;;;;;;11.02;5.85;;;;;;;2.29;58.21;101839.22;5034772;28;20057;-55
2022/04/03 06:43:45;;;;;;;14.00;5.97;;;;;;;2.47;57.70;101843.75;5027172;28;20057;-54
2022/04/03 06:46:14;;;;;;;11.45;5.72;;;;;;;2.55;57.93;101850.72;5031578;28;20037;-55
2022/04/03 06:48:41;;;;;;;17.00;6.33;;;;;;;2.71;57.10;101852.78;5029381;28;20052;-55
2022/04/03 06:51:09;;;;;;;12.98;6.03;;;;;;;2.53;57.33;101856.41;5027783;28;20049;-57
2022/04/03 06:53:37;;;;;;;12.38;5.75;;;;;;;2.45;57.57;101850.47;5029686;28;20060;-55
2022/04/03 06:56:04;;;;;;;15.48;6.22;;;;;;;2.83;57.15;101864.50;5024359;28;20068;-52
2022/04/03 06:58:31;;;;;;;19.17;6.28;;;;;;;2.91;56.24;101861.47;5029327;28;20056;-54
2022/04/03 07:00:59;;;;;;;18.98;5.97;;;;;;;2.85;56.29;101867.81;5057180;28;20064;-56
2022/04/03 07:03:26;;;;;;;13.88;5.78;;;;;;;2.92;55.46;101863.09;5069079;28;20041;-54
2022/04/03 07:05:54;;;;;;;12.40;5.78;;;;;;;3.00;55.57;101865.50;5073578;28;20060;-55
2022/04/03 07:08:21;;;;;;;11.50;5.18;;;;;;;2.91;55.07;101865.00;5060406;28;20079;-56
2022/04/03 07:10:50;;;;;;;11.77;6.18;;;;;;;2.98;55.01;101864.91;5066753;28;20052;-54
2022/04/03 07:13:17;;;;;;;14.27;6.10;;;;;;;2.89;55.57;101874.47;5071259;28;20115;-57
2022/04/03 07:15:44;;;;;;;10.68;5.43;;;;;;;2.77;55.14;101890.75;5064684;28;20045;-57
2022/04/03 07:18:12;;;;;;;9.70;5.20;;;;;;;2.89;55.32;101883.47;5064338;28;20077;-54
2022/04/03 07:20:39;;;;;;;11.60;6.15;;;;;;;2.79;55.11;101877.75;5071932;28;20066;-55
2022/04/03 07:23:07;;;;;;;13.38;5.85;;;;;;;2.81;54.86;101885.66;5055210;28;20052;-56
2022/04/03 07:25:34;;;;;;;14.73;6.00;;;;;;;2.75;55.04;101873.84;5070711;28;20049;-58
2022/04/03 07:28:01;;;;;;;11.60;6.03;;;;;;;2.91;55.17;101889.47;5069939;28;20457;-54
2022/04/03 07:30:29;;;;;;;13.65;5.82;;;;;;;3.02;54.27;101894.13;5062352;28;20043;-54
2022/04/03 07:32:56;;;;;;;12.23;5.82;;;;;;;2.93;54.77;101884.63;5049127;28;20511;-56
2022/04/03 07:35:25;;;;;;;13.85;6.03;;;;;;;3.12;54.18;101883.47;5070329;28;20403;-56
2022/04/03 07:37:52;;;;;;;19.13;6.97;;;;;;;3.25;53.74;101887.84;5072825;28;20059;-54
2022/04/03 07:40:20;;;;;;;14.75;5.45;;;;;;;3.43;53.76;101885.03;5074247;28;20059;-55
2022/04/03 07:43:07;;;;;;;13.55;5.47;;;;;;;3.62;52.45;101882.97;5062780;28;20056;-55
2022/04/03 07:45:35;;;;;;;13.15;5.18;;;;;;;3.59;51.98;101889.75;5062488;28;20530;-58
2022/04/03 07:48:02;;;;;;;13.50;5.43;;;;;;;3.40;51.84;101899.09;5061029;28;20052;-55
2022/04/03 07:50:30;;;;;;;11.32;5.50;;;;;;;3.43;52.68;101890.47;5072861;28;20052;-55
2022/04/03 07:52:57;;;;;;;13.05;5.43;;;;;;;3.22;52.25;101891.06;5074105;28;20048;-54
2022/04/03 07:55:24;;;;;;;12.02;4.88;;;;;;;3.26;51.43;101894.97;5051376;28;20053;-53
2022/04/03 07:57:52;;;;;;;10.23;4.50;;;;;;;3.32;51.52;101900.28;5075726;28;20480;-54
2022/04/03 08:00:19;;;;;;;11.63;5.22;;;;;;;3.47;51.23;101894.34;5069691;28;20044;-58
2022/04/03 08:02:46;;;;;;;18.13;5.22;;;;;;;3.59;50.43;101889.75;5077298;28;20051;-56
2022/04/03 08:05:14;;;;;;;9.30;4.15;;;;;;;3.77;50.25;101900.47;5069845;28;20053;-55
2022/04/03 08:07:48;;;;;;;9.27;4.43;;;;;;;3.93;50.05;101904.34;5067996;28;20048;-56
2022/04/03 08:10:17;;;;;;;8.88;4.40;;;;;;;3.84;49.29;101911.25;5073304;28;20048;-57
2022/04/03 08:12:47;;;;;;;8.82;4.35;;;;;;;3.90;49.23;101913.84;5072179;28;20048;-55
2022/04/03 08:15:15;;;;;;;8.30;4.18;;;;;;;4.02;48.63;101909.22;5072572;28;20051;-55
2022/04/03 08:17:44;;;;;;;;;;;;;;;3.98;48.32;101918.91;5073594;28;20041;-57
2022/04/03 08:20:16;;;;;;;8.77;4.50;;;;;;;4.09;48.21;101909.91;5072399;28;19928;-55
2022/04/03 08:22:48;;;;;;;8.52;3.90;;;;;;;4.05;47.72;101907.88;5073791;28;20040;-57
2022/04/03 08:25:16;;;;;;;8.23;3.78;;;;;;;4.06;47.81;101910.34;5072544;28;20064;-56
2022/04/03 08:27:51;;;;;;;8.05;4.30;;;;;;;3.75;47.89;101921.69;5056663;28;20052;-57
2022/04/03 08:30:23;;;;;;;9.95;3.97;;;;;;;3.79;47.99;101917.44;5067819;28;20048;-57
2022/04/03 08:32:51;;;;;;;9.32;3.60;;;;;;;4.14;47.72;101920.91;5070388;28;20531;-59
2022/04/03 08:35:19;;;;;;;9.18;4.00;;;;;;;4.27;47.04;101920.59;5078255;28;20515;-58
2022/04/03 08:37:48;;;;;;;10.05;3.92;;;;;;;4.38;46.92;101921.63;5075518;28;20048;-60
2022/04/03 08:40:19;;;;;;;8.85;3.65;;;;;;;4.48;46.06;101919.94;5069086;28;20460;-53
2022/04/03 08:42:49;;;;;;;9.85;4.40;;;;;;;4.59;46.34;101912.75;5071732;28;20056;-55
2022/04/03 08:45:17;;;;;;;13.43;3.83;;;;;;;4.68;45.77;101922.22;5063023;28;20048;-55
2022/04/03 08:47:47;;;;;;;10.40;3.55;;;;;;;4.26;45.98;101931.75;5076372;28;20044;-56
2022/04/03 08:50:16;;;;;;;9.93;3.50;;;;;;;4.30;46.22;101927.50;5065478;28;20076;-56
2022/04/03 08:52:49;;;;;;;7.88;3.85;;;;;;;4.53;45.83;101925.47;5062300;28;20049;-53
2022/04/03 08:55:17;;;;;;;11.30;3.63;;;;;;;4.44;45.02;101926.97;5065765;28;20384;-57
2022/04/03 08:57:50;;;;;;;7.60;3.33;;;;;;;4.58;45.05;101919.31;5068655;28;20544;-56
2022/04/03 09:00:18;;;;;;;8.15;3.10;;;;;;;4.66;43.82;101923.53;5045842;28;20060;-58
2022/04/03 09:02:46;;;;;;;8.30;2.80;;;;;;;4.67;42.92;101912.38;5074748;28;20055;-56
2022/04/03 09:05:17;;;;;;;6.00;3.13;;;;;;;4.62;41.62;101914.19;5076188;28;20043;-60
2022/04/03 09:07:58;;;;;;;6.82;2.80;;;;;;;4.81;41.76;101921.09;5068894;28;20484;-57
2022/04/03 09:10:26;;;;;;;6.22;3.20;;;;;;;4.69;41.55;101918.41;5068717;28;20060;-55
2022/04/03 09:12:53;;;;;;;8.55;3.15;;;;;;;4.95;41.56;101917.78;5064626;28;20056;-56
2022/04/03 09:15:22;;;;;;;5.93;3.15;;;;;;;5.06;41.42;101924.25;5066420;28;20451;-59
2022/04/03 09:17:58;;;;;;;8.00;3.05;;;;;;;5.14;41.60;101930.16;5061708;28;20051;-57
2022/04/03 09:20:30;;;;;;;6.25;3.10;;;;;;;5.19;41.03;101926.66;5064921;28;20491;-57
2022/04/03 09:23:00;;;;;;;5.38;2.72;;;;;;;5.12;41.02;101915.91;5071792;28;20041;-58
2022/04/03 09:25:40;;;;;;;6.97;2.80;;;;;;;5.06;41.46;101921.50;5073850;28;20056;-55
2022/04/03 09:28:11;;;;;;;6.22;2.80;;;;;;;5.11;40.81;101930.63;5071944;28;20051;-55
2022/04/03 09:30:43;;;;;;;5.85;2.55;;;;;;;5.17;41.04;101910.53;5072647;28;20048;-54
2022/04/03 09:33:12;;;;;;;6.00;2.97;;;;;;;5.15;39.03;101912.66;5071679;28;20048;-60
2022/04/03 09:35:53;;;;;;;6.13;2.60;;;;;;;5.07;38.81;101913.09;5074140;28;20048;-55
2022/04/03 09:38:22;;;;;;;6.78;2.28;;;;;;;5.19;37.69;101932.97;5084368;28;20044;-58
2022/04/03 09:40:52;;;;;;;4.45;2.20;;;;;;;5.29;37.42;101922.19;5071660;28;20048;-58
2022/04/03 09:43:27;;;;;;;9.33;2.27;;;;;;;5.19;36.99;101921.19;5067851;28;20053;-54
2022/04/03 09:45:59;;;;;;;4.60;1.88;;;;;;;5.19;36.00;101907.53;5063467;28;20299;-56
2022/04/03 09:48:40;;;;;;;9.02;2.25;;;;;;;5.33;36.68;101906.97;5076896;28;20048;-59
2022/04/03 09:51:19;;;;;;;5.18;1.92;;;;;;;5.35;35.96;101910.25;5076468;28;20492;-57
2022/04/03 09:53:49;;;;;;;6.35;1.75;;;;;;;5.47;35.89;101919.16;5070172;28;20048;-57
2022/04/03 09:56:31;;;;;;;5.40;1.75;;;;;;;5.31;35.84;101916.47;5058665;28;20381;-58
2022/04/03 09:59:14;;;;;;;3.88;1.92;;;;;;;5.22;35.06;101912.50;5072060;28;20056;-58
2022/04/03 10:01:42;;;;;;;3.65;1.50;;;;;;;5.39;34.88;101903.22;5043743;28;20041;-60
2022/04/03 10:04:13;;;;;;;4.50;1.40;;;;;;;5.72;35.30;101905.03;5069714;28;20488;-58
2022/04/03 10:06:42;;;;;;;4.28;1.70;;;;;;;5.63;35.07;101904.66;5073290;28;20044;-55
2022/04/03 10:09:15;;;;;;;3.70;1.50;;;;;;;5.51;34.94;101916.75;5090877;28;20672;-58
2022/04/03 10:11:43;;;;;;;4.38;1.70;;;;;;;5.46;35.25;101927.63;5072628;28;20427;-61
2022/04/03 10:14:11;;;;;;;3.55;1.60;;;;;;;5.61;34.87;101919.66;5062685;28;20051;-63
2022/04/03 10:16:40;;;;;;;3.53;1.65;;;;;;;5.65;35.34;101902.50;5076558;28;20408;-62
2022/04/03 10:19:11;;;;;;;4.63;1.60;;;;;;;5.70;34.89;101896.28;5054083;28;20052;-63
2022/04/03 10:21:52;;;;;;;5.70;1.70;;;;;;;5.76;35.13;101906.19;5074645;28;20044;-59
2022/04/03 10:24:23;;;;;;;3.33;1.70;;;;;;;5.73;34.81;101899.34;5074594;28;20045;-61
2022/04/03 10:27:07;;;;;;;5.32;1.30;;;;;;;5.70;34.89;101907.22;5075887;28;20063;-64
2022/04/03 10:29:37;;;;;;;7.13;1.90;;;;;;;5.77;34.90;101894.19;5074245;28;20052;-54
2022/04/03 10:32:06;;;;;;;3.50;1.30;;;;;;;5.86;34.56;101911.03;5075671;28;20044;-58
2022/04/03 10:34:56;;;;;;;3.58;1.17;;;;;;;5.65;34.48;101898.94;5068782;28;20044;-58
2022/04/03 10:37:39;;;;;;;4.13;1.50;;;;;;;5.77;34.91;101888.72;5061549;28;20048;-58
2022/04/03 10:40:13;;;;;;;4.95;1.88;;;;;;;5.99;34.55;101875.91;5061103;28;20056;-57
2022/04/03 10:42:58;;;;;;;4.15;1.60;;;;;;;6.14;34.83;101887.03;5070611;28;20052;-59
2022/04/03 10:45:32;;;;;;;7.95;1.92;;;;;;;6.17;34.71;101894.72;5075694;28;20060;-57
2022/04/03 10:48:21;;;;;;;6.72;1.77;;;;;;;6.33;34.79;101877.41;5075191;28;20048;-57
2022/04/03 10:51:09;;;;;;;6.32;2.33;;;;;;;6.63;34.52;101876.88;5070405;28;20356;-57
2022/04/03 10:53:48;;;;;;;4.85;1.77;;;;;;;6.34;34.44;101890.03;5073546;28;20056;-57
2022/04/03 10:56:25;;;;;;;7.75;1.83;;;;;;;6.15;34.52;101888.72;5073816;28;20048;-58
2022/04/03 10:58:54;;;;;;;6.18;2.20;;;;;;;6.19;35.17;101883.56;5061925;28;20055;-59
2022/04/03 11:01:25;;;;;;;4.57;1.77;;;;;;;6.24;35.16;101878.94;5068504;28;20048;-58
2022/04/03 11:03:55;;;;;;;6.18;2.10;;;;;;;6.42;35.09;101869.56;5066956;28;20078;-59
2022/04/03 11:06:25;;;;;;;4.10;1.88;;;;;;;6.59;34.74;101876.59;5073988;28;20041;-58
2022/04/03 11:09:02;;;;;;;6.43;1.70;;;;;;;6.42;33.91;101881.34;5065157;28;20055;-57
2022/04/03 11:11:42;;;;;;;4.90;1.75;;;;;;;6.39;34.51;101875.56;5074994;28;20516;-57
2022/04/03 11:14:33;;;;;;;6.32;1.95;;;;;;;6.43;34.05;101869.28;5066333;28;20044;-60
2022/04/03 11:17:01;;;;;;;5.22;2.20;;;;;;;6.11;34.35;101853.91;5064348;28;20057;-57
2022/04/03 11:19:41;;;;;;;4.63;1.95;;;;;;;6.15;34.79;101861.34;5070291;28;20056;-56
2022/04/03 11:22:16;;;;;;;7.43;2.58;;;;;;;6.30;35.01;101857.94;5067511;28;20049;-57
2022/04/03 11:24:44;;;;;;;5.25;2.00;;;;;;;6.21;34.82;101845.78;5075064;28;20049;-61
2022/04/03 11:27:12;;;;;;;3.97;2.05;;;;;;;6.22;34.61;101852.94;5073443;28;20049;-58
2022/04/03 11:29:40;;;;;;;6.75;1.90;;;;;;;6.34;34.84;101848.97;5069762;28;20411;-58
2022/04/03 11:32:09;;;;;;;5.80;2.10;;;;;;;6.53;33.77;101853.00;5073706;28;20059;-55
2022/04/03 11:34:36;;;;;;;7.18;2.42;;;;;;;6.34;34.25;101846.25;5075245;28;20071;-57
2022/04/03 11:37:05;;;;;;;6.68;2.00;;;;;;;6.56;33.85;101840.69;5074920;28;20044;-59
2022/04/03 11:39:35;;;;;;;6.10;2.10;;;;;;;6.63;33.95;101842.13;5083464;28;20045;-57
2022/04/03 11:42:08;;;;;;;;;;;;;;;6.81;33.70;101838.19;5065791;28;20048;-58
2022/04/03 11:44:37;;;;;;;5.30;2.08;;;;;;;6.71;33.80;101829.91;5070901;28;19925;-56
2022/04/03 11:47:21;;;;;;;8.00;2.10;;;;;;;6.81;33.67;101832.72;5073518;28;20052;-56